createdAt,value
2023-05-24T00:00:00.630Z,5.07
2023-05-24T00:02:28.345Z,5.45
2023-05-24T00:04:55.674Z,5.03
2023-05-24T00:07:22.837Z,5.00
2023-05-24T00:09:49.932Z,5.18
2023-05-24T00:12:17.042Z,5.32
2023-05-24T00:14:44.139Z,4.97
2023-05-24T00:17:12.948Z,4.90
2023-05-24T00:19:40.340Z,4.68
2023-05-24T00:22:07.518Z,5.25
2023-05-24T00:24:34.710Z,5.05
2023-05-24T00:27:01.935Z,5.20
2023-05-24T00:29:31.476Z,5.38
2023-05-24T00:32:00.830Z,5.03
2023-05-24T00:34:28.143Z,5.13
2023-05-24T00:36:55.176Z,5.10
2023-05-24T00:39:22.253Z,6.15
2023-05-24T00:41:49.557Z,5.13
2023-05-24T00:44:16.626Z,5.47
2023-05-24T00:46:44.353Z,5.35
2023-05-24T00:49:11.730Z,5.57
2023-05-24T00:51:38.962Z,5.80
2023-05-24T00:54:07.034Z,5.63
2023-05-24T00:56:34.428Z,5.10
2023-05-24T00:59:03.618Z,5.93
2023-05-24T01:01:34.911Z,5.03
2023-05-24T01:04:02.777Z,5.55
2023-05-24T01:06:36.802Z,5.57
2023-05-24T01:09:35.214Z,5.63
2023-05-24T01:12:15.769Z,5.43
2023-05-24T01:15:01.776Z,5.50
2023-05-24T01:17:42.957Z,6.30
2023-05-24T01:20:13.675Z,5.40
2023-05-24T01:22:59.414Z,5.30
2023-05-24T01:25:59.652Z,5.30
2023-05-24T01:28:28.385Z,5.78
2023-05-24T01:30:56.270Z,5.82
2023-05-24T01:33:25.858Z,6.20
2023-05-24T01:35:53.018Z,6.10
2023-05-24T01:38:20.074Z,6.13
2023-05-24T01:40:50.774Z,6.32
2023-05-24T01:43:35.213Z,5.85
2023-05-24T01:46:07.016Z,6.40
2023-05-24T01:49:02.365Z,6.68
2023-05-24T01:51:39.013Z,6.90
2023-05-24T01:56:35.972Z,6.25
2023-05-24T01:59:03.751Z,6.53
2023-05-24T02:01:32.032Z,6.20
2023-05-24T02:03:59.729Z,6.15
2023-05-24T02:06:26.918Z,6.72
2023-05-24T02:08:53.976Z,6.80
2023-05-24T02:11:23.104Z,6.50
2023-05-24T02:13:50.225Z,6.43
2023-05-24T02:16:18.346Z,6.57
2023-05-24T02:18:46.946Z,6.40
2023-05-24T02:21:14.202Z,6.25
2023-05-24T02:23:41.293Z,6.72
2023-05-24T02:26:11.639Z,6.40
2023-05-24T02:28:38.830Z,6.03
2023-05-24T02:31:06.449Z,6.32
2023-05-24T02:33:35.419Z,6.55
2023-05-24T02:36:02.625Z,6.20
2023-05-24T02:38:29.710Z,6.25
2023-05-24T02:40:56.730Z,6.53
2023-05-24T02:43:23.954Z,6.80
2023-05-24T02:45:51.077Z,5.90
2023-05-24T02:48:18.242Z,6.18
2023-05-24T02:50:45.490Z,5.88
2023-05-24T02:53:12.794Z,6.05
2023-05-24T02:55:40.098Z,5.82
2023-05-24T02:58:08.473Z,6.13
2023-05-24T03:00:36.249Z,6.30
2023-05-24T03:03:03.538Z,6.10
2023-05-24T03:05:30.840Z,6.30
2023-05-24T03:07:58.593Z,6.68
2023-05-24T03:10:25.882Z,6.97
2023-05-24T03:12:52.921Z,6.75
2023-05-24T03:15:20.220Z,6.43
2023-05-24T03:17:47.679Z,6.43
2023-05-24T03:20:16.062Z,6.30
2023-05-24T03:22:43.563Z,6.65
2023-05-24T03:25:10.691Z,6.88
2023-05-24T03:27:38.667Z,6.45
2023-05-24T03:30:06.870Z,6.47
2023-05-24T03:32:41.154Z,6.82
2023-05-24T03:35:12.176Z,6.28
2023-05-24T03:37:39.532Z,6.05
2023-05-24T03:40:08.996Z,6.97
2023-05-24T03:43:05.672Z,6.72
2023-05-24T03:45:53.679Z,6.72
2023-05-24T03:48:21.159Z,6.80
2023-05-24T03:50:50.292Z,6.75
2023-05-24T03:53:19.221Z,6.35
2023-05-24T03:55:47.673Z,6.38
2023-05-24T03:58:14.700Z,6.97
2023-05-24T04:00:41.964Z,6.38
2023-05-24T04:03:09.492Z,6.90
2023-05-24T04:05:36.562Z,6.70
2023-05-24T04:08:05.095Z,6.25
2023-05-24T04:10:32.274Z,6.65
2023-05-24T04:13:00.863Z,6.60
2023-05-24T04:15:27.995Z,6.70
2023-05-24T04:17:55.771Z,6.53
2023-05-24T04:20:27.803Z,6.97
2023-05-24T04:22:56.365Z,7.28
2023-05-24T04:25:23.834Z,6.93
2023-05-24T04:27:51.040Z,6.53
2023-05-24T04:30:18.439Z,6.90
2023-05-24T04:32:45.679Z,6.25
2023-05-24T04:35:13.559Z,6.50
2023-05-24T04:37:41.066Z,5.97
2023-05-24T04:40:08.850Z,6.72
2023-05-24T04:42:36.138Z,6.40
2023-05-24T04:45:03.562Z,6.40
2023-05-24T04:47:33.930Z,5.88
2023-05-24T04:50:01.107Z,6.70
2023-05-24T04:52:28.315Z,6.20
2023-05-24T04:54:55.757Z,5.65
2023-05-24T04:57:22.987Z,6.25
2023-05-24T04:59:50.172Z,5.72
2023-05-24T05:02:17.661Z,6.32
2023-05-24T05:04:44.840Z,6.28
2023-05-24T05:07:11.898Z,6.30
2023-05-24T05:09:39.044Z,6.15
2023-05-24T05:12:07.314Z,6.10
2023-05-24T05:14:34.518Z,5.80
2023-05-24T05:17:01.739Z,5.70
2023-05-24T05:19:28.965Z,6.20
2023-05-24T05:21:56.119Z,6.93
2023-05-24T05:24:23.353Z,5.75
2023-05-24T05:26:50.915Z,6.35
2023-05-24T05:29:17.990Z,5.70
2023-05-24T05:31:45.242Z,6.70
2023-05-24T05:34:12.402Z,6.18
2023-05-24T05:36:41.045Z,6.43
2023-05-24T05:39:11.992Z,5.82
2023-05-24T05:41:39.880Z,6.50
2023-05-24T05:44:06.955Z,6.90
2023-05-24T05:46:34.064Z,6.47
2023-05-24T05:49:01.236Z,6.93
2023-05-24T05:51:28.383Z,6.60
2023-05-24T05:53:55.614Z,6.03
2023-05-24T05:56:22.683Z,5.47
2023-05-24T05:58:49.936Z,6.18
2023-05-24T06:01:17.139Z,6.15
2023-05-24T06:03:45.208Z,6.35
2023-05-24T06:06:12.612Z,6.40
2023-05-24T06:08:41.033Z,6.70
2023-05-24T06:11:08.176Z,6.78
2023-05-24T06:13:35.206Z,6.60
2023-05-24T06:16:02.341Z,7.63
2023-05-24T06:18:30.688Z,7.60
2023-05-24T06:20:57.806Z,6.15
2023-05-24T06:23:24.941Z,6.70
2023-05-24T06:25:52.004Z,6.63
2023-05-24T06:28:19.132Z,7.35
2023-05-24T06:30:47.751Z,5.97
2023-05-24T06:33:14.961Z,6.82
2023-05-24T06:35:42.018Z,7.07
2023-05-24T06:38:09.160Z,6.45
2023-05-24T06:40:36.271Z,6.10
2023-05-24T06:43:04.352Z,6.35
2023-05-24T06:45:32.304Z,6.38
2023-05-24T06:47:59.600Z,5.82
2023-05-24T06:50:26.694Z,6.25
2023-05-24T06:52:53.864Z,6.68
2023-05-24T06:55:21.173Z,7.88
2023-05-24T06:57:48.226Z,6.78
2023-05-24T07:00:15.746Z,6.22
2023-05-24T07:02:43.033Z,5.97
2023-05-24T07:05:12.861Z,7.07
2023-05-24T07:07:43.991Z,6.82
2023-05-24T07:10:11.880Z,6.78
2023-05-24T07:12:39.049Z,6.30
2023-05-24T07:15:07.358Z,5.63
2023-05-24T07:17:34.828Z,6.38
2023-05-24T07:20:02.570Z,6.75
2023-05-24T07:22:32.718Z,6.65
2023-05-24T07:24:59.794Z,6.45
2023-05-24T07:27:26.863Z,5.93
2023-05-24T07:29:54.334Z,6.30
2023-05-24T07:32:21.747Z,6.72
2023-05-24T07:34:48.932Z,10.23
2023-05-24T07:37:16.832Z,6.68
2023-05-24T07:39:43.943Z,6.22
2023-05-24T07:42:11.029Z,7.00
2023-05-24T07:44:38.080Z,6.10
2023-05-24T07:47:05.314Z,6.25
2023-05-24T07:49:32.669Z,6.00
2023-05-24T07:52:00.374Z,6.70
2023-05-24T07:54:27.426Z,6.25
2023-05-24T07:56:54.518Z,6.40
2023-05-24T07:59:23.048Z,6.13
2023-05-24T08:01:50.708Z,6.93
2023-05-24T08:04:18.154Z,6.15
2023-05-24T08:06:46.893Z,6.80
2023-05-24T08:09:14.162Z,6.97
2023-05-24T08:11:41.958Z,7.07
2023-05-24T08:14:09.092Z,6.75
2023-05-24T08:16:36.255Z,8.75
2023-05-24T08:19:03.405Z,8.05
2023-05-24T08:21:30.687Z,7.32
2023-05-24T08:23:57.861Z,7.05
2023-05-24T08:26:24.944Z,6.75
2023-05-24T08:28:52.496Z,6.40
2023-05-24T08:31:19.564Z,6.45
2023-05-24T08:33:50.593Z,7.60
2023-05-24T08:36:18.518Z,7.25
2023-05-24T08:38:45.585Z,7.50
2023-05-24T08:41:12.657Z,7.28
2023-05-24T08:43:39.800Z,7.47
2023-05-24T08:46:08.001Z,6.97
2023-05-24T08:48:45.330Z,6.88
2023-05-24T08:51:16.950Z,7.15
2023-05-24T08:53:48.968Z,6.72
2023-05-24T08:56:18.062Z,6.25
2023-05-24T08:58:47.308Z,6.63
2023-05-24T09:01:17.016Z,7.45
2023-05-24T09:03:46.757Z,7.10
2023-05-24T09:06:16.968Z,7.15
2023-05-24T09:08:45.398Z,7.13
2023-05-24T09:11:14.797Z,6.97
2023-05-24T09:13:44.807Z,7.32
2023-05-24T09:16:12.526Z,7.72
2023-05-24T09:18:42.816Z,6.88
2023-05-24T09:21:12.027Z,6.70
2023-05-24T09:23:40.948Z,6.38
2023-05-24T09:26:09.835Z,6.22
2023-05-24T09:28:38.072Z,6.03
2023-05-24T09:31:07.920Z,5.78
2023-05-24T09:33:35.948Z,5.82
2023-05-24T09:36:07.322Z,5.95
2023-05-24T09:38:36.455Z,5.47
2023-05-24T09:41:08.864Z,5.72
2023-05-24T09:43:48.258Z,5.88
2023-05-24T09:46:22.346Z,5.45
2023-05-24T09:49:04.127Z,5.32
2023-05-24T09:51:31.207Z,5.60
2023-05-24T09:54:01.855Z,5.57
2023-05-24T09:56:30.272Z,4.63
2023-05-24T09:58:58.181Z,5.15
2023-05-24T10:01:26.986Z,5.20
2023-05-24T10:03:59.419Z,5.18
2023-05-24T10:06:26.869Z,4.68
2023-05-24T10:08:57.190Z,4.78
2023-05-24T10:11:24.494Z,4.70
2023-05-24T10:13:51.833Z,4.88
2023-05-24T10:16:18.980Z,4.70
2023-05-24T10:18:46.508Z,5.45
2023-05-24T10:21:14.133Z,4.30
2023-05-24T10:23:44.679Z,4.32
2023-05-24T10:26:12.805Z,4.50
2023-05-24T10:28:49.009Z,5.22
2023-05-24T10:31:22.942Z,4.53
2023-05-24T10:33:52.230Z,4.45
2023-05-24T10:36:20.052Z,4.18
2023-05-24T10:38:47.528Z,5.03
2023-05-24T10:41:14.614Z,4.60
2023-05-24T10:43:56.782Z,4.70
2023-05-24T10:46:33.498Z,4.45
2023-05-24T10:49:01.517Z,4.40
2023-05-24T10:51:39.594Z,4.35
2023-05-24T10:54:13.979Z,5.00
2023-05-24T10:56:43.290Z,5.22
2023-05-24T10:59:23.235Z,5.07
2023-05-24T11:02:01.073Z,4.40
2023-05-24T11:04:33.214Z,4.63
2023-05-24T11:07:11.684Z,4.70
2023-05-24T11:09:46.818Z,4.35
2023-05-24T11:12:19.110Z,4.32
2023-05-24T11:14:52.432Z,4.90
2023-05-24T11:17:22.878Z,4.88
2023-05-24T11:19:55.161Z,4.82
2023-05-24T11:22:25.673Z,4.90
2023-05-24T11:24:53.521Z,4.85
2023-05-24T11:27:21.108Z,4.95
2023-05-24T11:29:49.016Z,4.72
2023-05-24T11:32:19.032Z,5.05
2023-05-24T11:34:49.990Z,4.55
2023-05-24T11:37:18.838Z,5.05
2023-05-24T11:39:52.847Z,5.28
2023-05-24T11:42:22.328Z,5.22
2023-05-24T11:44:50.232Z,5.65
2023-05-24T11:47:20.506Z,5.55
2023-05-24T11:49:50.741Z,5.93
2023-05-24T11:52:17.782Z,4.80
2023-05-24T11:54:45.058Z,5.70
2023-05-24T11:57:12.956Z,5.95
2023-05-24T11:59:41.992Z,5.90
2023-05-24T12:02:09.287Z,5.60
2023-05-24T12:04:36.552Z,6.10
2023-05-24T12:07:03.869Z,5.40
2023-05-24T12:09:31.087Z,6.95
2023-05-24T12:11:58.817Z,6.03
2023-05-24T12:14:31.414Z,5.28
2023-05-24T12:16:59.839Z,5.60
2023-05-24T12:19:34.685Z,5.10
2023-05-24T12:22:07.510Z,5.70
2023-05-24T12:24:35.888Z,5.82
2023-05-24T12:27:08.894Z,5.85
2023-05-24T12:29:38.936Z,5.60
2023-05-24T12:32:12.477Z,6.28
2023-05-24T12:34:44.521Z,5.95
2023-05-24T12:37:13.655Z,5.95
2023-05-24T12:39:43.795Z,6.22
2023-05-24T12:42:16.227Z,6.25
2023-05-24T12:44:45.147Z,5.90
2023-05-24T12:47:12.760Z,6.22
2023-05-24T12:49:39.822Z,5.93
2023-05-24T12:52:07.149Z,7.43
2023-05-24T12:54:34.318Z,6.45
2023-05-24T12:57:03.383Z,5.55
2023-05-24T12:59:31.201Z,6.13
2023-05-24T13:01:58.340Z,5.75
2023-05-24T13:04:30.708Z,5.65
2023-05-24T13:06:57.998Z,5.65
2023-05-24T13:09:26.023Z,5.60
2023-05-24T13:11:54.350Z,5.45
2023-05-24T13:14:22.131Z,5.90
2023-05-24T13:16:49.779Z,5.95
2023-05-24T13:19:17.523Z,5.25
2023-05-24T13:21:45.675Z,5.35
2023-05-24T13:24:16.200Z,5.90
2023-05-24T13:26:45.176Z,5.60
2023-05-24T13:29:30.544Z,5.72
2023-05-24T13:32:00.065Z,6.10
2023-05-24T13:34:27.417Z,6.40
2023-05-24T13:36:55.064Z,6.40
2023-05-24T13:39:22.672Z,5.82
2023-05-24T13:41:50.249Z,6.35
2023-05-24T13:44:17.473Z,5.68
2023-05-24T13:46:45.033Z,5.72
2023-05-24T13:49:13.008Z,6.10
2023-05-24T13:51:40.550Z,6.20
2023-05-24T13:54:08.440Z,6.40
2023-05-24T13:56:36.789Z,6.43
2023-05-24T13:59:04.908Z,6.45
2023-05-24T14:01:33.715Z,6.20
2023-05-24T14:04:02.532Z,6.68
2023-05-24T14:06:29.954Z,6.30
2023-05-24T14:08:57.310Z,6.72
2023-05-24T14:11:25.625Z,6.18
2023-05-24T14:16:24.417Z,6.93
2023-05-24T14:18:51.915Z,6.05
2023-05-24T14:21:19.808Z,6.10
2023-05-24T14:23:46.965Z,5.88
2023-05-24T14:26:14.486Z,6.30
2023-05-24T14:28:41.596Z,6.35
2023-05-24T14:31:08.827Z,6.45
2023-05-24T14:33:36.085Z,6.30
2023-05-24T14:36:03.230Z,6.03
2023-05-24T14:38:30.497Z,5.75
2023-05-24T14:40:58.843Z,5.65
2023-05-24T14:43:26.359Z,7.38
2023-05-24T14:45:53.830Z,5.82
2023-05-24T14:48:20.990Z,5.72
2023-05-24T14:50:48.100Z,5.22
2023-05-24T14:53:15.183Z,5.57
2023-05-24T14:55:43.896Z,5.68
2023-05-24T14:58:12.331Z,4.88
2023-05-24T15:00:41.128Z,5.40
2023-05-24T15:03:09.112Z,5.20
2023-05-24T15:05:36.808Z,4.55
2023-05-24T15:08:05.703Z,4.55
2023-05-24T15:10:33.465Z,4.13
2023-05-24T15:13:01.653Z,3.78
2023-05-24T15:15:29.312Z,3.80
2023-05-24T15:17:59.659Z,3.85
2023-05-24T15:20:27.200Z,3.53
2023-05-24T15:22:54.281Z,4.40
2023-05-24T15:25:21.580Z,4.13
2023-05-24T15:27:49.280Z,3.88
2023-05-24T15:30:17.628Z,5.13
2023-05-24T15:32:46.588Z,4.22
2023-05-24T15:35:14.397Z,4.50
2023-05-24T15:37:42.960Z,3.97
2023-05-24T15:40:11.206Z,3.88
2023-05-24T15:42:38.296Z,3.90
2023-05-24T15:45:05.850Z,4.10
2023-05-24T15:47:38.180Z,4.13
2023-05-24T15:50:07.874Z,3.80
2023-05-24T15:52:35.661Z,4.38
2023-05-24T15:55:02.767Z,5.38
2023-05-24T15:57:31.541Z,4.75
2023-05-24T15:59:58.712Z,4.80
2023-05-24T16:02:25.995Z,4.75
2023-05-24T16:04:53.325Z,5.20
2023-05-24T16:07:20.519Z,4.38
2023-05-24T16:09:50.231Z,4.95
2023-05-24T16:12:17.969Z,5.43
2023-05-24T16:14:45.275Z,5.25
2023-05-24T16:17:13.543Z,5.65
2023-05-24T16:19:41.367Z,5.95
2023-05-24T16:22:08.707Z,5.43
2023-05-24T16:24:35.758Z,5.50
2023-05-24T16:27:02.908Z,5.38
2023-05-24T16:29:30.414Z,5.88
2023-05-24T16:31:57.713Z,5.47
2023-05-24T16:34:25.214Z,5.72
2023-05-24T16:36:52.434Z,5.35
2023-05-24T16:39:19.543Z,5.78
2023-05-24T16:41:47.132Z,5.63
2023-05-24T16:44:18.013Z,6.40
2023-05-24T16:46:46.256Z,5.72
2023-05-24T16:49:13.706Z,5.50
2023-05-24T16:51:40.941Z,5.47
2023-05-24T16:54:09.216Z,5.50
2023-05-24T16:56:37.984Z,6.00
2023-05-24T16:59:05.820Z,6.10
2023-05-24T17:01:33.220Z,5.93
2023-05-24T17:04:00.729Z,5.78
2023-05-24T17:06:28.043Z,5.90
2023-05-24T17:08:55.157Z,6.15
2023-05-24T17:11:23.278Z,6.32
2023-05-24T17:13:51.627Z,5.88
2023-05-24T17:16:19.002Z,6.15
2023-05-24T17:18:46.409Z,6.22
2023-05-24T17:21:13.885Z,6.45
2023-05-24T17:23:40.936Z,6.13
2023-05-24T17:26:08.302Z,5.88
2023-05-24T17:28:36.528Z,6.13
2023-05-24T17:31:04.237Z,6.88
2023-05-24T17:33:32.404Z,5.78
2023-05-24T17:36:04.426Z,6.45
2023-05-24T17:38:37.623Z,6.75
2023-05-24T17:41:07.855Z,6.38
2023-05-24T17:43:36.867Z,7.40
2023-05-24T17:46:06.723Z,7.07
2023-05-24T17:48:36.898Z,7.07
2023-05-24T17:51:08.662Z,7.20
2023-05-24T17:53:38.189Z,7.07
2023-05-24T17:56:06.628Z,7.00
2023-05-24T17:58:36.895Z,6.30
2023-05-24T18:01:07.248Z,6.45
2023-05-24T18:03:37.309Z,6.35
2023-05-24T18:06:07.013Z,6.32
2023-05-24T18:08:37.320Z,6.22
2023-05-24T18:11:08.653Z,6.28
2023-05-24T18:13:37.739Z,7.70
2023-05-24T18:16:06.055Z,16.30
2023-05-24T18:18:33.261Z,8.95
2023-05-24T18:21:00.422Z,8.68
2023-05-24T18:23:27.559Z,7.20
2023-05-24T18:26:00.600Z,7.25
2023-05-24T18:28:30.435Z,8.25
2023-05-24T18:30:57.550Z,8.23
2023-05-24T18:33:24.790Z,8.00
2023-05-24T18:35:52.040Z,8.05
2023-05-24T18:38:19.100Z,7.97
2023-05-24T18:40:46.259Z,8.70
2023-05-24T18:43:13.357Z,8.45
2023-05-24T18:45:40.600Z,8.80
2023-05-24T18:48:08.183Z,9.63
2023-05-24T18:50:35.335Z,10.32
2023-05-24T18:53:02.422Z,10.75
2023-05-24T18:55:29.523Z,10.70
2023-05-24T18:57:56.688Z,10.35
2023-05-24T19:00:24.631Z,10.20
2023-05-24T19:02:52.174Z,10.85
2023-05-24T19:05:20.114Z,11.82
2023-05-24T19:07:47.292Z,12.45
2023-05-24T19:10:14.433Z,12.93
2023-05-24T19:12:41.599Z,12.73
2023-05-24T19:15:09.211Z,12.82
2023-05-24T19:17:36.344Z,12.77
2023-05-24T19:20:04.126Z,12.60
2023-05-24T19:22:33.991Z,13.02
2023-05-24T19:25:01.575Z,13.45
2023-05-24T19:27:31.709Z,11.98
2023-05-24T19:30:00.261Z,12.48
2023-05-24T19:32:28.028Z,12.55
2023-05-24T19:34:55.306Z,12.32
2023-05-24T19:37:22.704Z,12.27
2023-05-24T19:39:51.498Z,12.57
2023-05-24T19:42:18.823Z,13.20
2023-05-24T19:44:45.997Z,12.13
2023-05-24T19:47:13.216Z,13.48
2023-05-24T19:49:40.369Z,12.48
2023-05-24T19:52:07.574Z,12.90
2023-05-24T19:54:34.716Z,11.77
2023-05-24T19:57:02.610Z,12.15
2023-05-24T19:59:29.860Z,13.10
2023-05-24T20:01:56.958Z,13.10
2023-05-24T20:04:24.214Z,12.40
2023-05-24T20:06:53.468Z,13.27
2023-05-24T20:09:20.698Z,13.70
2023-05-24T20:11:47.861Z,13.65
2023-05-24T20:14:15.095Z,13.63
2023-05-24T20:16:42.266Z,12.10
2023-05-24T20:19:10.650Z,13.32
2023-05-24T20:21:37.955Z,13.68
2023-05-24T20:24:05.540Z,12.82
2023-05-24T20:26:33.550Z,14.77
2023-05-24T20:29:01.111Z,13.57
2023-05-24T20:31:28.300Z,14.48
2023-05-24T20:33:55.443Z,15.52
2023-05-24T20:36:22.524Z,17.50
2023-05-24T20:38:50.362Z,17.45
2023-05-24T20:41:18.127Z,17.75
2023-05-24T20:43:45.252Z,18.67
2023-05-24T20:46:14.075Z,20.17
2023-05-24T20:48:42.254Z,17.88
2023-05-24T20:51:09.974Z,18.10
2023-05-24T20:53:37.804Z,17.15
2023-05-24T20:56:04.954Z,17.75
2023-05-24T20:58:32.114Z,17.48
2023-05-24T21:00:59.336Z,16.60
2023-05-24T21:03:26.536Z,15.68
2023-05-24T21:05:53.693Z,15.30
2023-05-24T21:08:20.935Z,15.65
2023-05-24T21:10:48.042Z,16.23
2023-05-24T21:13:15.287Z,15.93
2023-05-24T21:15:44.712Z,15.57
2023-05-24T21:18:13.078Z,15.10
2023-05-24T21:20:40.639Z,15.40
2023-05-24T21:23:07.881Z,16.13
2023-05-24T21:25:35.098Z,15.07
2023-05-24T21:28:02.257Z,14.77
2023-05-24T21:30:30.655Z,16.00
2023-05-24T21:32:57.935Z,15.27
2023-05-24T21:35:25.159Z,15.40
2023-05-24T21:37:52.770Z,16.17
2023-05-24T21:40:19.897Z,15.23
2023-05-24T21:42:47.470Z,15.73
2023-05-24T21:45:14.641Z,15.73
2023-05-24T21:47:42.870Z,14.93
2023-05-24T21:50:10.371Z,15.38
2023-05-24T21:52:37.585Z,14.85
2023-05-24T21:55:05.589Z,15.15
2023-05-24T21:57:32.870Z,16.40
2023-05-24T22:00:00.129Z,15.68
2023-05-24T22:02:27.499Z,16.98
2023-05-24T22:04:54.893Z,15.70
2023-05-24T22:07:22.077Z,16.00
2023-05-24T22:09:49.215Z,16.48
2023-05-24T22:12:16.514Z,16.65
2023-05-24T22:14:43.627Z,14.57
2023-05-24T22:17:11.446Z,15.00
2023-05-24T22:19:41.420Z,14.68
2023-05-24T22:22:10.005Z,15.75
2023-05-24T22:24:37.163Z,15.13
2023-05-24T22:27:04.898Z,14.50
2023-05-24T22:29:31.971Z,15.00
2023-05-24T22:31:59.084Z,14.98
2023-05-24T22:34:29.264Z,15.15
2023-05-24T22:36:57.734Z,14.77
2023-05-24T22:39:25.296Z,15.20
2023-05-24T22:41:52.974Z,14.13
2023-05-24T22:44:20.337Z,13.50
2023-05-24T22:46:49.925Z,12.88
2023-05-24T22:49:20.097Z,14.32
2023-05-24T22:51:48.848Z,13.85
2023-05-24T22:54:16.404Z,15.02
2023-05-24T22:56:44.159Z,14.60
2023-05-24T22:59:11.596Z,14.02
2023-05-24T23:01:39.068Z,13.45
2023-05-24T23:04:19.831Z,14.98
2023-05-24T23:06:53.233Z,15.35
2023-05-24T23:09:41.700Z,14.38
2023-05-24T23:12:09.337Z,14.05
2023-05-24T23:14:41.909Z,14.13
2023-05-24T23:17:15.810Z,14.45
2023-05-24T23:19:43.445Z,13.95
2023-05-24T23:22:23.802Z,12.40
2023-05-24T23:24:51.299Z,12.88
2023-05-24T23:27:18.630Z,12.35
2023-05-24T23:29:45.752Z,12.20
2023-05-24T23:32:12.979Z,11.57
2023-05-24T23:34:40.040Z,12.18
2023-05-24T23:37:07.725Z,12.18
2023-05-24T23:39:34.911Z,11.10
2023-05-24T23:42:02.680Z,10.25
2023-05-24T23:44:29.891Z,11.13
2023-05-24T23:46:57.405Z,11.45
2023-05-24T23:49:25.886Z,10.73
2023-05-24T23:51:53.000Z,10.95
2023-05-24T23:54:20.335Z,10.68
2023-05-24T23:56:47.607Z,10.38
2023-05-24T23:59:17.045Z,10.15
